Time;durP1;ratioP1;P1;durP2;ratioP2;P2;SDS_P1;SDS_P2;PMS_P1;PMS_P2;Temp;Humidity;BMP_temperature;BMP_pressure;BME280_temperature;BME280_humidity;BME280_pressure;Samples;Min_cycle;Max_cycle;Signal;HPM_P1;HPM_P2
2023/01/11 00:00:15;;;;;;;7.40;5.30;;;9.40;99.90;;;;;;5055036;28;20060;-85
2023/01/11 00:02:40;;;;;;;9.73;5.55;;;9.40;99.90;;;;;;5054974;28;20022;-85
2023/01/11 00:05:08;;;;;;;10.07;5.32;;;9.40;99.90;;;;;;5055285;28;20432;-85
2023/01/11 00:07:33;;;;;;;11.00;5.18;;;9.30;99.90;;;;;;5054993;28;20016;-84
2023/01/11 00:10:03;;;;;;;8.90;4.82;;;9.30;99.90;;;;;;5054652;28;20029;-84
2023/01/11 00:12:29;;;;;;;5.82;4.47;;;9.30;99.90;;;;;;5055173;28;20041;-85
2023/01/11 00:14:55;;;;;;;7.68;4.97;;;9.30;99.90;;;;;;5054726;28;20400;-85
2023/01/11 00:17:21;;;;;;;7.65;4.65;;;9.30;99.90;;;;;;5054755;28;20040;-85
2023/01/11 00:19:46;;;;;;;6.82;4.78;;;9.20;99.90;;;;;;5055076;28;20021;-85
2023/01/11 00:22:12;;;;;;;8.75;5.22;;;9.10;99.90;;;;;;5054709;28;20044;-85
2023/01/11 00:24:38;;;;;;;10.40;5.25;;;9.20;99.90;;;;;;5054054;28;20045;-84
2023/01/11 00:27:03;;;;;;;8.43;5.22;;;9.10;99.90;;;;;;5054542;28;20033;-85
2023/01/11 00:29:29;;;;;;;11.02;5.65;;;9.10;99.90;;;;;;5036556;28;20071;-85
2023/01/11 00:31:54;;;;;;;9.35;5.28;;;9.10;99.90;;;;;;5054522;28;20090;-85
2023/01/11 00:34:20;;;;;;;7.72;5.22;;;9.10;99.90;;;;;;5054492;28;20389;-85
2023/01/11 00:36:46;;;;;;;8.68;5.47;;;9.20;99.90;;;;;;5054670;28;20052;-84
2023/01/11 00:39:11;;;;;;;9.18;4.82;;;9.20;99.90;;;;;;5054044;28;20027;-85
2023/01/11 00:49:53;;;;;;;7.85;4.82;;;9.10;99.90;;;;;;5054425;28;20036;-85
2023/01/11 00:52:18;;;;;;;8.55;5.25;;;9.00;99.90;;;;;;5054068;28;20029;-85
2023/01/11 00:54:44;;;;;;;7.70;4.97;;;8.90;99.90;;;;;;5053899;28;20469;-85
2023/01/11 00:57:10;;;;;;;9.00;4.82;;;9.00;99.90;;;;;;5053400;28;20033;-85
2023/01/11 00:59:38;;;;;;;8.13;4.60;;;9.00;99.90;;;;;;5054011;28;20043;-85
2023/01/11 01:02:04;;;;;;;7.05;4.70;;;9.10;99.90;;;;;;5053861;28;20025;-85
2023/01/11 01:04:30;;;;;;;8.90;5.00;;;9.10;99.90;;;;;;5054002;28;20025;-85
2023/01/11 01:06:55;;;;;;;8.82;4.97;;;9.00;99.90;;;;;;5053449;28;20025;-85
2023/01/11 01:09:21;;;;;;;9.65;5.38;;;8.90;99.90;;;;;;5054102;28;20021;-85
2023/01/11 01:11:47;;;;;;;8.30;4.75;;;8.90;99.90;;;;;;5053739;28;20047;-85
2023/01/11 01:14:27;;;;;;;10.00;5.03;;;8.70;99.90;;;;;;5053562;28;20025;-85
2023/01/11 01:16:54;;;;;;;7.07;4.95;;;8.70;99.90;;;;;;5053357;28;20120;-85
2023/01/11 01:19:21;;;;;;;9.80;4.85;;;8.60;99.90;;;;;;5053945;28;20393;-85
2023/01/11 01:21:47;;;;;;;9.63;4.80;;;8.60;99.90;;;;;;5053249;28;20040;-85
2023/01/11 01:24:13;;;;;;;6.88;4.38;;;8.50;99.90;;;;;;5053305;28;20068;-85
2023/01/11 01:26:38;;;;;;;6.93;4.50;;;8.50;99.90;;;;;;5053362;28;20114;-85
2023/01/11 01:29:04;;;;;;;8.55;4.32;;;8.60;99.90;;;;;;5053261;28;20078;-85
2023/01/11 01:31:30;;;;;;;6.82;4.45;;;8.60;99.90;;;;;;5053510;28;20052;-85
2023/01/11 01:33:56;;;;;;;7.47;4.70;;;8.60;99.90;;;;;;5053338;28;20451;-85
2023/01/11 01:36:22;;;;;;;6.95;4.68;;;8.60;99.90;;;;;;5052940;28;20473;-85
2023/01/11 01:38:47;;;;;;;9.50;4.90;;;8.60;99.90;;;;;;5053512;28;20033;-85
2023/01/11 01:41:13;;;;;;;7.20;5.10;;;8.50;99.90;;;;;;5053329;28;20032;-85
2023/01/11 01:43:52;;;;;;;10.02;4.72;;;8.50;99.90;;;;;;5053127;28;20036;-85
2023/01/11 01:46:19;;;;;;;7.50;4.80;;;8.40;99.90;;;;;;5052902;28;20477;-85
2023/01/11 01:48:59;;;;;;;7.28;4.82;;;8.40;99.90;;;;;;5053120;28;20481;-85
2023/01/11 01:51:37;;;;;;;9.65;5.30;;;8.30;99.90;;;;;;5052686;28;20039;-85
2023/01/11 01:54:08;;;;;;;10.82;5.57;;;8.10;99.90;;;;;;5052511;28;20029;-86
2023/01/11 01:56:41;;;;;;;6.60;4.70;;;8.10;99.90;;;;;;5052847;28;20086;-84
2023/01/11 01:59:11;;;;;;;6.88;4.40;;;8.00;99.90;;;;;;5052913;28;20104;-85
2023/01/11 02:01:47;;;;;;;6.13;4.15;;;7.90;99.90;;;;;;5052695;28;20086;-85
2023/01/11 02:04:36;;;;;;;7.22;4.30;;;7.90;99.90;;;;;;5053029;28;20036;-85
2023/01/11 02:07:17;;;;;;;6.10;3.88;;;7.90;99.90;;;;;;5052743;28;20021;-85
2023/01/11 02:09:56;;;;;;;6.70;4.15;;;7.90;99.90;;;;;;5051555;28;20047;-86
2023/01/11 02:12:25;;;;;;;7.38;4.60;;;7.80;99.90;;;;;;5052646;28;20497;-85
2023/01/11 02:14:53;;;;;;;6.72;3.85;;;7.70;99.90;;;;;;5052346;28;20025;-85
2023/01/11 02:17:20;;;;;;;6.82;4.20;;;7.70;99.90;;;;;;5052698;28;20040;-85
2023/01/11 02:19:57;;;;;;;5.85;4.10;;;7.60;99.90;;;;;;5052059;28;20025;-85
2023/01/11 02:22:41;;;;;;;7.40;4.50;;;7.50;99.90;;;;;;5052591;28;20099;-85
2023/01/11 02:25:19;;;;;;;6.78;3.95;;;7.60;99.90;;;;;;5052617;28;20186;-85
2023/01/11 02:28:15;;;;;;;5.80;4.20;;;7.50;99.90;;;;;;5052394;28;20025;-85
2023/01/11 02:30:57;;;;;;;6.18;4.10;;;7.40;99.90;;;;;;4971441;28;20039;-85
2023/01/11 02:33:41;;;;;;;7.78;4.00;;;7.30;99.90;;;;;;4971072;28;20049;-85
2023/01/11 02:36:27;;;;;;;6.72;4.35;;;7.50;99.90;;;;;;4971321;28;20034;-85
2023/01/11 02:39:29;;;;;;;7.63;3.95;;;7.40;99.90;;;;;;4971171;28;20376;-85
2023/01/11 02:45:27;;;;;;;5.93;3.95;;;7.30;99.90;;;;;;4932917;29;20050;-86
2023/01/11 02:48:09;;;;;;;6.10;3.95;;;7.30;99.90;;;;;;4932526;29;20066;-85
2023/01/11 02:50:35;;;;;;;5.95;3.80;;;7.30;99.90;;;;;;4932775;29;20039;-85
2023/01/11 02:53:15;;;;;;;7.20;4.00;;;7.30;99.90;;;;;;4932577;29;20746;-85
2023/01/11 02:55:47;;;;;;;7.55;4.00;;;7.30;99.90;;;;;;4932751;29;20046;-85
2023/01/11 02:58:15;;;;;;;6.55;4.03;;;7.30;99.90;;;;;;4933130;29;20039;-85
2023/01/11 03:00:42;;;;;;;7.07;4.22;;;7.20;99.90;;;;;;4932851;29;20143;-85
2023/01/11 03:03:17;;;;;;;5.13;3.47;;;7.20;99.90;;;;;;4932530;29;20151;-85
2023/01/11 03:05:50;;;;;;;6.90;4.05;;;7.10;99.90;;;;;;4932756;29;20183;-85
2023/01/11 03:08:50;;;;;;;5.80;3.58;;;7.20;99.90;;;;;;4978095;28;20035;-85
2023/01/11 03:15:16;;;;;;;6.40;3.42;;;7.30;99.90;;;;;;4951567;29;20508;-85
2023/01/11 03:18:09;;;;;;;6.55;3.50;;;7.30;99.90;;;;;;4948533;29;20043;-86
2023/01/11 03:20:48;;;;;;;6.35;3.78;;;7.40;99.90;;;;;;4956079;28;20042;-85
2023/01/11 03:23:13;;;;;;;5.25;3.20;;;7.30;99.90;;;;;;4994159;28;20036;-83
2023/01/11 03:25:52;;;;;;;5.53;3.35;;;7.20;99.90;;;;;;4994537;28;20209;-85
2023/01/11 03:28:20;;;;;;;5.97;3.60;;;7.20;99.90;;;;;;4994382;28;20154;-86
2023/01/11 03:30:55;;;;;;;5.82;3.50;;;7.30;99.90;;;;;;4994205;28;20487;-85
2023/01/11 03:33:29;;;;;;;4.88;3.58;;;7.10;99.90;;;;;;4993732;28;20035;-85
2023/01/11 03:36:03;;;;;;;4.93;3.30;;;7.10;99.90;;;;;;4993917;28;20027;-85
2023/01/11 03:38:41;;;;;;;7.72;3.67;;;7.10;99.90;;;;;;4993869;28;20100;-85
2023/01/11 03:41:12;;;;;;;8.05;3.97;;;7.10;99.90;;;;;;4994242;28;20070;-85
2023/01/11 03:43:42;;;;;;;6.85;4.13;;;7.20;99.90;;;;;;4993757;28;20140;-85
2023/01/11 03:46:15;;;;;;;6.05;3.70;;;7.20;99.90;;;;;;4993442;28;20084;-84
2023/01/11 03:48:47;;;;;;;9.10;3.70;;;7.20;99.90;;;;;;4993930;28;20081;-85
2023/01/11 03:51:18;;;;;;;5.43;3.80;;;7.20;99.90;;;;;;5015440;28;20072;-85
2023/01/11 03:53:47;;;;;;;4.82;3.40;;;7.10;99.90;;;;;;5015748;28;20042;-85
2023/01/11 03:56:17;;;;;;;6.50;3.88;;;7.10;99.90;;;;;;5015569;28;20048;-86
2023/01/11 03:58:43;;;;;;;10.07;5.93;;;7.10;99.90;;;;;;5015481;28;20701;-85
2023/01/11 04:01:10;;;;;;;7.47;4.03;;;7.10;99.90;;;;;;5015225;28;20089;-85
2023/01/11 04:03:35;;;;;;;5.85;3.72;;;7.10;99.90;;;;;;5015169;28;20064;-85
2023/01/11 04:06:01;;;;;;;7.57;3.80;;;7.00;99.90;;;;;;5015610;28;20049;-85
2023/01/11 04:08:27;;;;;;;8.15;5.00;;;7.10;99.90;;;;;;5015295;28;20057;-84
2023/01/11 04:10:53;;;;;;;12.48;7.70;;;7.20;99.90;;;;;;5015096;28;20026;-85
2023/01/11 04:13:19;;;;;;;10.35;6.43;;;7.20;99.90;;;;;;5015386;28;20168;-85
2023/01/11 04:15:44;;;;;;;8.32;4.80;;;7.20;99.90;;;;;;5014701;28;20049;-85
2023/01/11 04:18:10;;;;;;;6.25;4.70;;;7.40;99.90;;;;;;5014200;28;20478;-85
2023/01/11 04:20:39;;;;;;;9.75;5.10;;;7.40;99.90;;;;;;5015177;28;20029;-85
2023/01/11 04:23:06;;;;;;;6.45;4.00;;;7.50;99.90;;;;;;5015031;28;20494;-85
2023/01/11 04:25:32;;;;;;;6.55;3.63;;;7.50;99.90;;;;;;5053177;28;20056;-85
2023/01/11 04:27:59;;;;;;;5.55;3.75;;;7.40;99.90;;;;;;5054692;28;20040;-85
2023/01/11 04:30:25;;;;;;;6.55;3.88;;;7.40;99.90;;;;;;5054189;28;20025;-85
2023/01/11 04:32:51;;;;;;;6.82;4.28;;;7.40;99.90;;;;;;5053765;28;20052;-85
2023/01/11 04:35:17;;;;;;;6.88;3.80;;;7.40;99.90;;;;;;5054354;28;20477;-85
2023/01/11 04:37:43;;;;;;;6.45;3.47;;;7.50;99.90;;;;;;5054435;28;20104;-85
2023/01/11 04:40:09;;;;;;;5.60;3.45;;;7.50;99.90;;;;;;5054391;28;20053;-85
2023/01/11 04:42:35;;;;;;;7.57;3.47;;;7.60;99.90;;;;;;5054224;28;20082;-85
2023/01/11 04:45:04;;;;;;;6.70;3.80;;;7.60;99.90;;;;;;5053931;28;20029;-86
2023/01/11 04:47:30;;;;;;;6.00;3.67;;;7.60;99.90;;;;;;5053851;28;20452;-86
2023/01/11 04:49:56;;;;;;;7.63;4.03;;;7.70;99.90;;;;;;5053946;28;20021;-85
2023/01/11 04:52:21;;;;;;;5.43;3.30;;;7.60;99.90;;;;;;5052494;28;20036;-86
2023/01/11 04:54:47;;;;;;;4.68;3.55;;;7.60;99.90;;;;;;5053888;28;20025;-86
2023/01/11 04:57:15;;;;;;;6.00;4.00;;;7.60;99.90;;;;;;5053977;28;20045;-85
2023/01/11 04:59:41;;;;;;;5.78;3.50;;;7.60;99.90;;;;;;5053522;28;20064;-86
2023/01/11 05:02:06;;;;;;;6.57;3.75;;;7.60;99.90;;;;;;5053900;28;20048;-86
2023/01/11 05:04:32;;;;;;;5.70;4.03;;;7.60;99.90;;;;;;5053492;28;20053;-86
2023/01/11 05:06:58;;;;;;;7.47;4.05;;;7.70;99.90;;;;;;5053781;28;20104;-86
2023/01/11 05:09:24;;;;;;;6.82;4.03;;;7.70;99.90;;;;;;5053681;28;20037;-86
2023/01/11 05:11:49;;;;;;;6.55;4.60;;;7.80;99.90;;;;;;5053807;28;20033;-86
2023/01/11 05:14:16;;;;;;;6.25;3.83;;;7.70;99.90;;;;;;5053391;28;20123;-85
2023/01/11 05:16:42;;;;;;;8.43;3.70;;;7.70;99.90;;;;;;5053433;28;20417;-85
2023/01/11 05:19:10;;;;;;;6.40;3.70;;;7.60;99.90;;;;;;5053763;28;20351;-86
2023/01/11 05:21:38;;;;;;;5.80;3.58;;;7.50;99.90;;;;;;5053298;28;20518;-86
2023/01/11 05:24:06;;;;;;;5.43;3.38;;;7.40;99.90;;;;;;5052968;28;20048;-86
2023/01/11 05:26:34;;;;;;;6.13;3.22;;;7.40;99.90;;;;;;5053774;28;20026;-85
2023/01/11 05:29:02;;;;;;;5.65;3.60;;;7.50;99.90;;;;;;5053150;28;20108;-86
2023/01/11 05:31:30;;;;;;;4.75;3.40;;;7.50;99.90;;;;;;5053188;28;20021;-86
2023/01/11 05:33:57;;;;;;;4.53;3.40;;;7.60;99.90;;;;;;5053246;28;20036;-85
2023/01/11 05:36:24;;;;;;;5.53;3.22;;;7.80;99.90;;;;;;5053523;28;20033;-84
2023/01/11 05:38:51;;;;;;;3.78;2.78;;;7.70;99.90;;;;;;5054115;28;20021;-85
2023/01/11 05:41:18;;;;;;;6.07;3.33;;;7.60;99.90;;;;;;5053179;28;20028;-85
2023/01/11 05:46:31;;;;;;;5.40;3.25;;;7.60;99.90;;;;;;5053197;28;20508;-85
2023/01/11 05:49:00;;;;;;;9.23;3.88;;;7.70;99.90;;;;;;5052952;28;20074;-85
2023/01/11 05:51:26;;;;;;;5.70;3.53;;;7.70;99.90;;;;;;5052798;28;20481;-85
2023/01/11 05:53:52;;;;;;;6.43;3.50;;;7.80;99.90;;;;;;5053101;28;20033;-84
2023/01/11 05:56:18;;;;;;;5.95;3.67;;;7.80;99.90;;;;;;5052551;28;20029;-84
2023/01/11 05:58:48;;;;;;;6.45;4.38;;;7.90;99.90;;;;;;5052770;28;20056;-85
2023/01/11 06:01:13;;;;;;;7.13;3.53;;;7.90;99.90;;;;;;5052721;28;20029;-85
2023/01/11 06:03:39;;;;;;;6.30;4.65;;;7.90;99.90;;;;;;5052769;28;20047;-85
2023/01/11 06:06:05;;;;;;;7.15;4.05;;;7.90;99.90;;;;;;5052652;28;20032;-84
2023/01/11 06:08:31;;;;;;;7.60;4.80;;;7.90;99.90;;;;;;5052885;28;20049;-84
2023/01/11 06:10:57;;;;;;;6.80;4.32;;;7.90;99.90;;;;;;5052151;28;20060;-84
2023/01/11 06:13:27;;;;;;;8.65;3.40;;;7.90;99.90;;;;;;5053134;28;20039;-84
2023/01/11 06:15:53;;;;;;;5.97;3.15;;;7.90;99.90;;;;;;5052224;28;20424;-84
2023/01/11 06:18:19;;;;;;;5.50;3.53;;;7.90;99.90;;;;;;5052854;28;20083;-85
2023/01/11 06:20:53;;;;;;;4.90;3.03;;;7.80;99.90;;;;;;5052418;28;20031;-85
2023/01/11 06:23:19;;;;;;;5.55;2.85;;;7.80;99.90;;;;;;5052327;28;20060;-85
2023/01/11 06:25:45;;;;;;;5.97;3.03;;;7.90;99.90;;;;;;5051998;28;20056;-85
2023/01/11 06:28:11;;;;;;;6.40;3.13;;;7.90;99.90;;;;;;5052764;28;20040;-85
2023/01/11 06:30:36;;;;;;;5.60;3.35;;;8.00;99.90;;;;;;5052243;28;20398;-84
2023/01/11 06:33:06;;;;;;;5.15;3.50;;;8.00;99.90;;;;;;5052101;28;20033;-85
2023/01/11 06:35:40;;;;;;;5.13;2.97;;;8.00;99.90;;;;;;5052394;28;20028;-84
2023/01/11 06:38:07;;;;;;;7.72;3.38;;;8.00;99.90;;;;;;5052319;28;20036;-85
2023/01/11 06:40:34;;;;;;;8.07;3.78;;;7.90;99.90;;;;;;5051532;28;20025;-85
2023/01/11 06:42:59;;;;;;;8.73;3.90;;;7.90;99.90;;;;;;5052545;28;20036;-85
2023/01/11 06:45:25;;;;;;;7.80;3.67;;;7.90;99.90;;;;;;5052082;28;20021;-85
2023/01/11 06:47:51;;;;;;;5.65;3.45;;;7.90;99.90;;;;;;5052648;28;20389;-85
2023/01/11 06:50:16;;;;;;;9.00;4.28;;;8.00;99.90;;;;;;5052362;28;20029;-85
2023/01/11 06:52:42;;;;;;;8.15;4.35;;;8.00;99.90;;;;;;5052066;28;20032;-85
2023/01/11 06:55:08;;;;;;;6.32;4.35;;;8.00;99.90;;;;;;5051165;28;20029;-85
2023/01/11 06:57:34;;;;;;;7.65;4.30;;;8.00;99.90;;;;;;5052172;28;20104;-84
2023/01/11 07:00:00;;;;;;;7.78;4.00;;;8.00;99.90;;;;;;5051730;28;20112;-85
2023/01/11 07:02:25;;;;;;;8.65;3.90;;;8.10;99.90;;;;;;5051885;28;20028;-85
2023/01/11 07:04:51;;;;;;;7.07;4.00;;;7.90;99.90;;;;;;5051729;28;20043;-85
2023/01/11 07:07:17;;;;;;;8.32;3.80;;;8.00;99.90;;;;;;5051978;28;20041;-84
2023/01/11 07:09:43;;;;;;;6.78;3.50;;;8.10;99.90;;;;;;5051562;28;20029;-85
2023/01/11 07:12:08;;;;;;;6.32;3.90;;;8.00;99.90;;;;;;5051794;28;20044;-85
2023/01/11 07:14:34;;;;;;;5.78;4.10;;;8.10;99.90;;;;;;5052104;28;20036;-85
2023/01/11 07:17:00;;;;;;;7.97;5.18;;;8.00;99.90;;;;;;5051491;28;20111;-84
2023/01/11 07:19:25;;;;;;;10.27;4.30;;;8.00;99.90;;;;;;5051661;28;20581;-85
2023/01/11 07:21:51;;;;;;;7.10;4.60;;;7.90;99.90;;;;;;5052277;28;20017;-85
2023/01/11 07:24:16;;;;;;;5.50;4.00;;;7.90;99.90;;;;;;5051189;28;20057;-84
2023/01/11 07:26:42;;;;;;;5.50;3.35;;;7.70;99.90;;;;;;5051769;28;20028;-85
2023/01/11 07:29:08;;;;;;;6.68;3.58;;;7.70;99.90;;;;;;5051457;28;20040;-85
2023/01/11 07:31:34;;;;;;;6.03;3.40;;;7.60;99.90;;;;;;5051938;28;20564;-84
2023/01/11 07:34:00;;;;;;;4.47;3.30;;;7.70;99.90;;;;;;5051857;28;20101;-85
2023/01/11 07:36:26;;;;;;;4.93;3.60;;;7.50;99.90;;;;;;5051775;28;20029;-85
2023/01/11 07:38:51;;;;;;;8.18;3.97;;;7.50;99.90;;;;;;5051368;28;20032;-85
2023/01/11 07:44:01;;;;;;;7.20;3.88;;;7.60;99.90;;;;;;5052052;28;20397;-85
2023/01/11 07:46:27;;;;;;;7.68;3.53;;;7.70;99.90;;;;;;5051797;28;20029;-84
2023/01/11 07:48:53;;;;;;;7.20;3.50;;;7.70;99.90;;;;;;5051423;28;20036;-84
2023/01/11 07:51:22;;;;;;;4.97;3.50;;;7.80;99.90;;;;;;5051524;28;20039;-84
2023/01/11 07:53:49;;;;;;;6.95;3.58;;;7.80;99.90;;;;;;5051551;28;20029;-85
2023/01/11 07:56:14;;;;;;;6.55;3.47;;;8.00;99.90;;;;;;5051464;28;20158;-85
2023/01/11 07:58:40;;;;;;;6.68;3.50;;;8.10;99.90;;;;;;5051318;28;20100;-86
2023/01/11 08:01:05;;;;;;;4.30;3.50;;;8.20;99.90;;;;;;5052074;28;20028;-85
2023/01/11 08:03:31;;;;;;;6.95;3.83;;;8.30;99.90;;;;;;5051329;28;20573;-85
2023/01/11 08:05:57;;;;;;;7.15;3.92;;;8.40;99.90;;;;;;5051832;28;20035;-85
2023/01/11 08:08:22;;;;;;;5.70;4.00;;;8.40;99.90;;;;;;5054084;28;20478;-85
2023/01/11 08:14:38;;;;;;;5.53;4.28;;;8.40;99.90;;;;;;5055163;28;20025;-85
2023/01/11 08:16:18;;;;;;;8.20;3.78;;;8.60;99.90;;;;;;5055468;28;20048;-85
2023/01/11 08:18:44;;;;;;;6.70;3.13;;;8.70;99.90;;;;;;5054773;28;20021;-85
2023/01/11 08:21:09;;;;;;;5.38;3.42;;;8.70;99.90;;;;;;5054648;28;20386;-85
2023/01/11 08:23:35;;;;;;;9.10;3.50;;;8.90;99.90;;;;;;5054582;28;20040;-85
2023/01/11 08:26:01;;;;;;;4.47;3.10;;;8.90;99.90;;;;;;5055156;28;20061;-85
2023/01/11 08:28:27;;;;;;;6.15;3.65;;;9.00;99.90;;;;;;5054488;28;20104;-85
2023/01/11 08:30:53;;;;;;;5.20;3.80;;;9.10;99.90;;;;;;5054219;28;20105;-85
2023/01/11 08:33:18;;;;;;;5.28;3.80;;;9.30;99.90;;;;;;5054655;28;20029;-85
2023/01/11 08:35:44;;;;;;;5.00;3.72;;;9.40;99.90;;;;;;5054045;28;20532;-83
2023/01/11 08:38:09;;;;;;;5.70;3.35;;;9.50;99.90;;;;;;5054315;28;20508;-85
2023/01/11 08:40:36;;;;;;;4.93;3.20;;;9.50;99.90;;;;;;5054555;28;20029;-85
2023/01/11 08:43:01;;;;;;;7.25;3.35;;;9.40;99.90;;;;;;5054232;28;20017;-85
2023/01/11 08:45:27;;;;;;;4.53;3.13;;;9.20;99.90;;;;;;5054237;28;20025;-85
2023/01/11 08:47:54;;;;;;;5.45;3.20;;;9.00;99.90;;;;;;5054693;28;20458;-85
2023/01/11 08:50:20;;;;;;;5.22;3.30;;;8.90;99.90;;;;;;5053749;28;20052;-85
2023/01/11 08:52:46;;;;;;;4.70;3.30;;;9.00;99.90;;;;;;5053866;28;20068;-85
2023/01/11 08:55:12;;;;;;;5.85;3.30;;;9.00;99.90;;;;;;5053819;28;20052;-85
2023/01/11 08:57:37;;;;;;;5.18;3.15;;;9.00;99.90;;;;;;5052684;28;20033;-86
2023/01/11 09:00:04;;;;;;;7.93;3.60;;;9.00;99.90;;;;;;5054187;28;20055;-85
2023/01/11 09:02:30;;;;;;;4.38;3.13;;;9.10;99.90;;;;;;5053889;28;20363;-85
2023/01/11 09:04:56;;;;;;;7.57;3.40;;;9.20;99.90;;;;;;5053446;28;20029;-85
2023/01/11 09:07:21;;;;;;;4.75;3.47;;;9.20;99.90;;;;;;5054210;28;20025;-85
2023/01/11 09:09:47;;;;;;;5.07;3.30;;;9.30;99.90;;;;;;5053675;28;20033;-85
2023/01/11 09:12:13;;;;;;;5.90;3.40;;;9.50;99.90;;;;;;5053578;28;20067;-85
2023/01/11 09:14:39;;;;;;;4.40;3.38;;;9.60;99.90;;;;;;5053952;28;20114;-85
2023/01/11 09:17:04;;;;;;;4.93;3.22;;;9.60;99.90;;;;;;5053484;28;20473;-85
2023/01/11 09:19:32;;;;;;;4.28;3.17;;;9.60;99.90;;;;;;5052767;28;20485;-85
2023/01/11 09:22:00;;;;;;;6.00;3.60;;;9.80;99.90;;;;;;5053594;28;20025;-85
2023/01/11 09:24:26;;;;;;;5.38;3.10;;;9.90;99.90;;;;;;5053148;28;20406;-85
2023/01/11 09:26:52;;;;;;;4.60;2.80;;;10.00;99.90;;;;;;5053532;28;20032;-85
2023/01/11 09:29:18;;;;;;;4.75;3.03;;;10.00;99.90;;;;;;5053403;28;20440;-85
2023/01/11 09:31:44;;;;;;;4.32;3.10;;;10.10;99.90;;;;;;5053281;28;20037;-85
2023/01/11 09:34:12;;;;;;;7.97;3.40;;;10.20;99.90;;;;;;5053045;28;20478;-86
2023/01/11 09:36:39;;;;;;;6.00;3.35;;;10.30;99.90;;;;;;5053200;28;20469;-84
2023/01/11 09:39:09;;;;;;;4.75;3.40;;;10.40;99.90;;;;;;5053540;28;20022;-84
2023/01/11 09:41:43;;;;;;;9.38;4.47;;;10.70;99.90;;;;;;5052943;28;20483;-85
2023/01/11 09:44:17;;;;;;;5.70;4.47;;;10.60;99.90;;;;;;5053150;28;20060;-85
2023/01/11 09:46:48;;;;;;;12.35;7.93;;;10.40;99.90;;;;;;5053571;28;20025;-84
2023/01/11 09:49:25;;;;;;;16.38;9.65;;;10.20;99.90;;;;;;5052628;28;20542;-85
2023/01/11 09:52:04;;;;;;;11.45;7.75;;;10.10;99.90;;;;;;5052876;28;20029;-85
2023/01/11 09:54:30;;;;;;;8.25;5.47;;;10.10;99.90;;;;;;5052567;28;20025;-85
2023/01/11 09:57:05;;;;;;;8.13;5.35;;;10.20;99.90;;;;;;5053225;28;20029;-84
2023/01/11 09:59:51;;;;;;;7.07;4.70;;;10.30;99.90;;;;;;5052795;28;20029;-85
2023/01/11 10:02:38;;;;;;;6.50;4.05;;;10.40;99.90;;;;;;5052774;28;20099;-84
2023/01/11 10:05:24;;;;;;;6.25;3.95;;;10.50;99.90;;;;;;5052167;28;20060;-84
2023/01/11 10:08:12;;;;;;;8.07;6.90;;;10.50;99.90;;;;;;5052628;28;20033;-84
2023/01/11 10:10:47;;;;;;;8.57;4.55;;;10.60;99.90;;;;;;5052686;28;20025;-85
2023/01/11 10:13:42;;;;;;;6.78;4.13;;;10.80;99.90;;;;;;5052545;28;20033;-85
2023/01/11 10:16:31;;;;;;;5.65;4.07;;;10.80;99.90;;;;;;5052277;28;20033;-85
2023/01/11 10:19:08;;;;;;;5.95;4.47;;;10.70;99.90;;;;;;5052075;28;20029;-85
2023/01/11 10:21:39;;;;;;;8.73;5.40;;;10.70;99.90;;;;;;5052227;28;20092;-85
2023/01/11 10:24:11;;;;;;;8.38;4.82;;;10.70;99.90;;;;;;5052587;28;20106;-85
2023/01/11 10:26:40;;;;;;;5.00;3.72;;;10.70;99.90;;;;;;5052346;28;20044;-84
2023/01/11 10:31:57;;;;;;;6.30;3.45;;;10.60;99.90;;;;;;5052111;28;20040;-85
2023/01/11 10:43:15;;;;;;;5.00;3.50;;;10.50;99.90;;;;;;5052185;28;20036;-85
2023/01/11 10:45:53;;;;;;;5.85;3.40;;;10.40;99.90;;;;;;5052167;28;20075;-85
2023/01/11 10:48:39;;;;;;;5.97;3.70;;;10.40;99.90;;;;;;5052341;28;20029;-85
2023/01/11 10:51:31;;;;;;;7.88;4.50;;;10.50;99.90;;;;;;5052303;28;20132;-85
2023/01/11 10:54:17;;;;;;;6.35;4.30;;;10.50;99.90;;;;;;5051793;28;20033;-85
2023/01/11 10:56:58;;;;;;;6.35;4.57;;;10.60;99.90;;;;;;5051919;28;20463;-85
2023/01/11 10:59:36;;;;;;;6.72;4.20;;;10.50;99.90;;;;;;5051960;28;20028;-85
2023/01/11 11:02:54;;;;;;;9.45;5.97;;;10.50;99.90;;;;;;5051561;28;20025;-85
2023/01/11 11:05:57;;;;;;;10.40;7.40;;;10.50;99.90;;;;;;4990290;28;20082;-85
2023/01/11 11:08:41;;;;;;;9.25;5.82;;;10.20;99.90;;;;;;4990444;28;20066;-85
2023/01/11 11:11:33;;;;;;;13.63;7.28;;;10.10;99.90;;;;;;4990384;28;20041;-84
2023/01/11 11:14:30;;;;;;;10.88;6.18;;;10.20;99.90;;;;;;4990299;28;20046;-85
2023/01/11 11:17:01;;;;;;;11.95;7.03;;;10.20;99.90;;;;;;4984517;28;20034;-85
2023/01/11 11:19:31;;;;;;;12.70;7.03;;;10.30;99.90;;;;;;4990157;28;20113;-85
2023/01/11 11:21:57;;;;;;;8.32;4.75;;;10.30;99.90;;;;;;4990294;28;20100;-85
2023/01/11 11:24:43;;;;;;;8.35;4.68;;;10.40;99.90;;;;;;4990509;28;20077;-85
2023/01/11 11:27:40;;;;;;;7.75;4.28;;;10.30;99.90;;;;;;4913351;29;20040;-85
2023/01/11 11:30:10;;;;;;;7.53;4.05;;;10.10;99.90;;;;;;4912502;29;20040;-84
2023/01/11 11:32:40;;;;;;;7.75;4.50;;;10.00;99.90;;;;;;4913424;29;20040;-85
2023/01/11 11:35:26;;;;;;;8.82;4.45;;;10.10;99.90;;;;;;4913239;29;20037;-85
2023/01/11 11:37:53;;;;;;;6.82;4.72;;;10.20;99.90;;;;;;4913672;29;20052;-85
2023/01/11 11:40:32;;;;;;;8.77;4.97;;;10.10;99.90;;;;;;4948066;28;20086;-85
2023/01/11 11:43:14;;;;;;;6.93;4.82;;;10.10;99.90;;;;;;4955293;29;20090;-85
2023/01/11 11:45:57;;;;;;;6.97;5.03;;;9.90;99.90;;;;;;4955218;29;20046;-85
2023/01/11 11:48:25;;;;;;;9.70;4.88;;;9.90;99.90;;;;;;4954935;29;20456;-84
2023/01/11 11:50:54;;;;;;;6.50;4.95;;;9.80;99.90;;;;;;4954943;29;20039;-85
2023/01/11 11:53:29;;;;;;;7.55;4.68;;;9.80;99.90;;;;;;4954838;29;20539;-85
2023/01/11 11:55:56;;;;;;;8.52;4.53;;;9.60;99.90;;;;;;4954703;29;20027;-84
2023/01/11 11:58:24;;;;;;;6.25;4.68;;;9.50;99.90;;;;;;4955667;29;20039;-85
2023/01/11 12:00:51;;;;;;;8.52;5.28;;;9.70;99.90;;;;;;4954519;29;20043;-85
2023/01/11 12:03:20;;;;;;;9.13;5.03;;;9.60;99.90;;;;;;4963067;28;20023;-85
2023/01/11 12:06:02;;;;;;;6.78;5.15;;;9.70;99.90;;;;;;5034949;28;20033;-85
2023/01/11 12:08:31;;;;;;;7.57;5.65;;;9.80;99.90;;;;;;5035038;28;20025;-85
2023/01/11 12:11:00;;;;;;;10.70;5.97;;;9.80;99.90;;;;;;5034952;28;20034;-85
2023/01/11 12:13:39;;;;;;;6.88;4.85;;;9.80;99.90;;;;;;5034444;28;20033;-85
2023/01/11 12:16:19;;;;;;;5.65;4.43;;;9.60;99.90;;;;;;5034654;28;20410;-85
2023/01/11 12:18:45;;;;;;;8.20;5.32;;;9.70;99.90;;;;;;5035048;28;20083;-85
2023/01/11 12:21:22;;;;;;;7.53;5.40;;;9.80;99.90;;;;;;5034864;28;20478;-85
2023/01/11 12:24:07;;;;;;;12.38;6.00;;;9.70;99.90;;;;;;5039480;28;20047;-85
2023/01/11 12:27:10;;;;;;;8.13;5.38;;;9.60;99.90;;;;;;5054538;28;20448;-85
2023/01/11 12:30:21;;;;;;;6.40;5.13;;;9.50;99.90;;;;;;5031592;28;20093;-85
2023/01/11 12:33:11;;;;;;;7.47;5.80;;;9.60;99.90;;;;;;5032092;28;20048;-85
2023/01/11 12:36:04;;;;;;;12.18;6.55;;;9.40;99.90;;;;;;5054414;28;20079;-85
2023/01/11 12:38:54;;;;;;;6.45;4.65;;;9.60;99.90;;;;;;5054332;28;20036;-85
2023/01/11 12:41:46;;;;;;;7.93;4.35;;;9.60;99.90;;;;;;5054380;28;20469;-85
2023/01/11 12:44:24;;;;;;;8.60;4.43;;;9.80;99.90;;;;;;5054308;28;20067;-85
2023/01/11 12:47:04;;;;;;;6.20;4.40;;;9.80;99.90;;;;;;5054225;28;20033;-85
2023/01/11 12:49:59;;;;;;;6.85;4.78;;;9.70;99.90;;;;;;5054056;28;20389;-83
2023/01/11 12:52:38;;;;;;;9.57;6.22;;;9.50;99.90;;;;;;5052461;28;20049;-85
2023/01/11 12:55:25;;;;;;;11.52;7.18;;;9.50;99.90;;;;;;5053868;28;20033;-85
2023/01/11 12:58:21;;;;;;;7.20;5.97;;;9.30;99.90;;;;;;5052389;28;20051;-84
2023/01/11 13:01:11;;;;;;;12.40;7.45;;;9.30;99.90;;;;;;5053748;28;20520;-85
2023/01/11 13:04:15;;;;;;;9.07;6.10;;;9.40;99.90;;;;;;5053804;28;20091;-85
2023/01/11 13:06:55;;;;;;;10.70;5.97;;;9.30;99.90;;;;;;4992487;28;20034;-85
2023/01/11 13:09:42;;;;;;;7.78;5.30;;;9.40;99.90;;;;;;4992413;28;20022;-84
2023/01/11 13:12:33;;;;;;;8.45;5.82;;;9.20;99.90;;;;;;4991755;28;20039;-84
2023/01/11 13:15:17;;;;;;;7.63;5.80;;;9.30;99.90;;;;;;4975885;28;20063;-85
2023/01/11 13:18:01;;;;;;;8.95;6.07;;;9.30;99.90;;;;;;4992101;28;20133;-85
2023/01/11 13:20:32;;;;;;;8.63;6.63;;;9.40;99.90;;;;;;4992298;28;20036;-85
2023/01/11 13:23:14;;;;;;;11.35;7.63;;;9.30;99.90;;;;;;4992418;28;20073;-85
2023/01/11 13:25:44;;;;;;;11.52;7.18;;;9.30;99.90;;;;;;4991975;28;20621;-85
2023/01/11 13:28:28;;;;;;;9.38;6.97;;;9.20;99.90;;;;;;4991912;28;20030;-85
2023/01/11 13:30:55;;;;;;;10.27;6.28;;;9.30;99.90;;;;;;4992094;28;20121;-85
2023/01/11 13:33:25;;;;;;;9.57;6.40;;;9.40;99.90;;;;;;4991645;28;20042;-84
2023/01/11 13:36:06;;;;;;;12.52;7.30;;;9.50;99.90;;;;;;4991976;28;20026;-85
2023/01/11 13:38:34;;;;;;;13.05;8.25;;;9.50;99.90;;;;;;5050714;28;20033;-85
2023/01/11 13:41:12;;;;;;;12.18;8.57;;;9.50;99.90;;;;;;5052836;28;20072;-85
2023/01/11 13:43:47;;;;;;;11.57;9.38;;;9.60;99.90;;;;;;5053066;28;20142;-85
2023/01/11 13:46:21;;;;;;;12.20;9.13;;;9.50;99.90;;;;;;5052913;28;20040;-84
2023/01/11 13:49:05;;;;;;;11.15;8.13;;;9.50;99.90;;;;;;5052990;28;20112;-84
2023/01/11 13:51:43;;;;;;;11.02;7.45;;;9.40;99.90;;;;;;5053224;28;20025;-85
2023/01/11 13:54:11;;;;;;;8.13;7.25;;;9.50;99.90;;;;;;5053053;28;20033;-85